Time;durP1;ratioP1;P1;durP2;ratioP2;P2;SDS_P1;SDS_P2;PMS_P1;PMS_P2;Temp;Humidity;BMP_temperature;BMP_pressure;BME280_temperature;BME280_humidity;BME280_pressure;Samples;Min_cycle;Max_cycle;Signal;HPM_P1;HPM_P2
2022/09/19 00:01:26;;;;;;;8.38;4.53;;;19.30;99.90;;;19.33;73.81;97793.25;5090881;28;20049;-74
2022/09/19 00:04:10;;;;;;;14.80;5.90;;;19.40;99.90;;;19.29;74.20;97785.72;5072992;28;20040;-74
2022/09/19 00:06:38;;;;;;;10.52;4.78;;;19.40;99.90;;;19.33;73.96;97777.56;5108945;28;20039;-74
2022/09/19 00:09:07;;;;;;;11.30;5.43;;;19.40;99.90;;;19.30;73.50;97784.56;5069787;28;20419;-74
2022/09/19 00:11:34;;;;;;;7.85;4.93;;;19.40;99.90;;;19.30;73.54;97778.28;5109468;28;20127;-74
2022/09/19 00:14:00;;;;;;;11.15;5.00;;;19.30;99.90;;;19.32;73.18;97777.94;5089748;28;20108;-74
2022/09/19 00:16:29;;;;;;;13.30;5.80;;;19.30;99.90;;;19.31;73.70;97777.13;5104041;28;20035;-74
2022/09/19 00:18:57;;;;;;;16.17;5.97;;;19.30;99.90;;;19.33;73.93;97774.00;5108328;28;20040;-74
2022/09/19 00:21:27;;;;;;;15.10;6.32;;;19.40;99.90;;;19.32;74.00;97769.69;5111218;28;20039;-74
2022/09/19 00:26:39;;;;;;;13.55;5.82;;;19.40;99.90;;;19.30;73.49;97768.06;5095542;28;20172;-74
2022/09/19 00:29:07;;;;;;;12.43;6.35;;;19.30;99.90;;;19.32;73.22;97767.72;5094387;28;20043;-75
2022/09/19 00:31:33;;;;;;;17.35;5.45;;;19.40;99.90;;;19.30;73.20;97767.28;5077637;28;20176;-74
2022/09/19 00:34:00;;;;;;;13.20;5.85;;;19.40;99.90;;;19.28;73.92;97775.91;5092680;28;20042;-74
2022/09/19 00:36:27;;;;;;;20.55;7.45;;;19.40;99.90;;;19.32;74.04;97775.19;5086615;28;20069;-74
2022/09/19 00:38:53;;;;;;;22.40;7.47;;;19.40;99.90;;;19.28;73.72;97767.66;5078583;28;20078;-74
2022/09/19 00:41:25;;;;;;;10.60;5.43;;;19.40;99.90;;;19.32;73.47;97772.44;5101071;28;20032;-74
2022/09/19 00:43:59;;;;;;;11.63;5.95;;;19.40;99.90;;;19.32;73.37;97775.19;5073991;28;20513;-74
2022/09/19 00:46:27;;;;;;;9.35;5.40;;;19.40;99.90;;;19.32;72.95;97777.94;5089333;28;20498;-74
2022/09/19 00:49:05;;;;;;;12.95;6.47;;;19.40;99.90;;;19.30;73.34;97778.28;5089139;28;20539;-74
2022/09/19 00:51:38;;;;;;;20.98;7.70;;;19.40;99.90;;;19.30;73.77;97784.56;5093465;28;20121;-74
2022/09/19 00:54:13;;;;;;;14.20;6.50;;;19.40;99.90;;;19.32;73.63;97775.19;5092981;28;20383;-74
2022/09/19 00:56:43;;;;;;;12.25;6.68;;;19.50;99.90;;;19.29;73.36;97780.22;5088460;28;20232;-74
2022/09/19 00:59:09;;;;;;;11.10;5.65;;;19.40;99.90;;;19.32;72.97;97777.94;5106514;28;20048;-74
2022/09/19 01:01:35;;;;;;;16.23;6.25;;;19.40;99.90;;;19.30;73.18;97779.06;5090194;28;20088;-74
2022/09/19 01:04:01;;;;;;;11.55;5.55;;;19.40;99.90;;;19.32;73.05;97794.44;5068588;28;20472;-74
2022/09/19 01:06:47;;;;;;;13.20;6.57;;;19.40;99.90;;;19.33;73.50;97779.50;5089696;28;20151;-75
2022/09/19 01:09:25;;;;;;;16.10;6.85;;;19.40;99.90;;;19.28;73.59;97781.41;5090883;28;20054;-74
2022/09/19 01:12:26;;;;;;;14.05;6.82;;;19.40;99.90;;;19.29;73.32;97777.47;5104842;28;20050;-74
2022/09/19 01:15:02;;;;;;;16.90;6.50;;;19.40;99.90;;;19.29;73.06;97782.97;5105196;28;20046;-74
2022/09/19 01:17:49;;;;;;;16.23;6.68;;;19.40;99.90;;;19.30;73.10;97775.53;5110995;28;20047;-74
2022/09/19 01:20:24;;;;;;;16.55;6.75;;;19.40;99.90;;;19.32;72.70;97778.72;5093876;28;20498;-74
2022/09/19 01:23:15;;;;;;;14.77;6.97;;;19.40;99.90;;;19.33;73.24;97777.56;5106041;28;20055;-74
2022/09/19 01:25:57;;;;;;;19.87;7.97;;;19.40;99.90;;;19.33;73.51;97782.25;5109765;27;20048;-74
2022/09/19 01:28:41;;;;;;;14.48;7.40;;;19.50;99.90;;;19.30;72.88;97781.81;5094042;27;20054;-74
2022/09/19 01:31:21;;;;;;;15.98;6.82;;;19.40;99.90;;;19.29;73.18;97777.47;5086798;28;20051;-74
2022/09/19 01:33:54;;;;;;;14.75;6.85;;;19.40;99.90;;;19.29;72.93;97788.47;5111049;27;20035;-74
2022/09/19 01:36:22;;;;;;;15.88;6.63;;;19.40;99.90;;;19.28;72.92;97781.41;5112758;27;20055;-74
2022/09/19 01:38:49;;;;;;;15.23;7.38;;;19.40;99.90;;;19.30;73.54;97787.31;5090727;27;20046;-74
2022/09/19 01:41:15;;;;;;;16.15;6.97;;;19.40;99.90;;;19.27;73.74;97779.78;5074907;27;20060;-74
2022/09/19 01:43:41;;;;;;;17.63;7.22;;;19.40;99.90;;;19.24;73.50;97786.00;5090679;27;20725;-74
2022/09/19 01:46:29;;;;;;;12.00;5.68;;;19.40;99.90;;;19.29;72.83;97780.22;5106864;27;20040;-74
2022/09/19 01:49:07;;;;;;;15.65;6.30;;;19.40;99.90;;;19.28;73.10;97784.16;5079353;28;20046;-74
2022/09/19 01:51:46;;;;;;;16.98;6.68;;;19.40;99.90;;;19.30;72.76;97790.06;5074726;28;20537;-74
2022/09/19 01:54:32;;;;;;;12.90;6.18;;;19.40;99.90;;;19.33;73.06;97796.00;5077862;27;20543;-74
2022/09/19 01:57:05;;;;;;;13.05;5.80;;;19.40;99.90;;;19.30;73.18;97800.28;5108168;27;20130;-74
2022/09/19 01:59:50;;;;;;;12.32;6.00;;;19.40;99.90;;;19.29;73.10;97799.47;5126271;27;20120;-74
2022/09/19 02:02:46;;;;;;;13.07;4.90;;;19.40;99.90;;;19.29;72.89;97798.69;5109853;27;20470;-74
2022/09/19 02:05:41;;;;;;;18.38;7.15;;;19.40;99.90;;;19.27;72.68;97796.28;5107986;27;20035;-75
2022/09/19 02:08:30;;;;;;;13.57;7.70;;;19.40;99.90;;;19.28;72.68;97805.31;5107555;27;20066;-74
2022/09/19 02:11:03;;;;;;;14.65;6.00;;;19.40;99.90;;;19.29;73.23;97796.72;5109709;27;20051;-75
2022/09/19 02:13:31;;;;;;;15.40;7.10;;;19.40;99.90;;;19.29;73.28;97804.19;5106174;27;20035;-75
2022/09/19 02:16:09;;;;;;;16.92;7.25;;;19.40;99.90;;;19.29;73.00;97801.44;5075655;28;20048;-75
2022/09/19 02:18:41;;;;;;;13.23;6.10;;;19.40;99.90;;;19.28;72.74;97808.88;5076201;28;20040;-74
2022/09/19 02:21:11;;;;;;;13.18;6.97;;;19.40;99.90;;;19.26;72.73;97807.66;5094347;28;20046;-74
2022/09/19 02:23:47;;;;;;;11.20;5.57;;;19.30;99.90;;;19.29;72.44;97810.47;5075768;28;20039;-74
2022/09/19 02:26:19;;;;;;;14.82;6.32;;;19.40;99.90;;;19.28;73.20;97817.13;5063370;27;20075;-75
2022/09/19 02:28:46;;;;;;;13.20;6.38;;;19.40;99.90;;;19.29;72.83;97826.19;5078624;27;20096;-75
2022/09/19 02:31:12;;;;;;;16.63;5.88;;;19.40;99.90;;;19.25;73.04;97817.81;5074332;27;20040;-75
2022/09/19 02:33:42;;;;;;;12.10;6.03;;;19.40;99.90;;;19.28;72.70;97819.88;5091576;28;20131;-74
2022/09/19 02:36:13;;;;;;;13.13;6.40;;;19.40;99.90;;;19.28;72.52;97824.56;5109083;27;20471;-74
2022/09/19 02:39:05;;;;;;;17.38;5.95;;;19.40;99.90;;;19.22;72.73;97820.50;5108067;27;20046;-74
2022/09/19 02:41:49;;;;;;;11.80;6.18;;;19.30;99.90;;;19.24;73.00;97818.19;5110218;27;20412;-74
2022/09/19 02:44:30;;;;;;;19.35;6.93;;;19.30;99.90;;;19.27;73.16;97811.97;5091907;27;20054;-74
2022/09/19 02:47:03;;;;;;;15.75;7.53;;;19.40;99.90;;;19.24;73.36;97819.00;5095391;27;20039;-75
2022/09/19 02:49:39;;;;;;;14.50;6.53;;;19.40;99.90;;;19.21;72.96;97822.44;5107705;27;20108;-74
2022/09/19 02:52:33;;;;;;;16.48;6.75;;;19.30;99.90;;;19.25;72.72;97819.78;5094882;28;20044;-74
2022/09/19 02:55:13;;;;;;;13.27;6.63;;;19.30;99.90;;;19.24;72.50;97824.50;5110320;27;20070;-74
2022/09/19 02:57:46;;;;;;;13.73;6.65;;;19.30;99.90;;;19.21;73.19;97830.69;5076470;27;20036;-74
2022/09/19 03:00:13;;;;;;;18.35;7.32;;;19.30;99.90;;;19.21;73.29;97819.69;5074098;28;20085;-74
2022/09/19 03:02:56;;;;;;;15.32;6.80;;;19.40;99.90;;;19.19;73.78;97815.72;5078719;27;20467;-74
2022/09/19 03:05:25;;;;;;;15.38;6.50;;;19.30;99.90;;;19.19;73.24;97827.50;5092842;28;20043;-74
2022/09/19 03:08:02;;;;;;;14.23;6.15;;;19.30;99.90;;;19.18;73.14;97825.88;5077170;28;20039;-74
2022/09/19 03:10:32;;;;;;;9.55;5.45;;;19.30;99.90;;;19.19;73.00;97829.47;5076572;27;20055;-75
2022/09/19 03:13:01;;;;;;;14.85;6.55;;;19.30;99.90;;;19.19;73.06;97837.72;5093128;28;20044;-75
2022/09/19 03:15:52;;;;;;;14.55;6.25;;;19.30;99.90;;;19.23;73.35;97844.06;5072959;27;20043;-75
2022/09/19 03:18:19;;;;;;;15.77;6.28;;;19.30;99.90;;;19.18;73.70;97847.88;5105861;27;20032;-75
2022/09/19 03:20:48;;;;;;;10.60;5.63;;;19.30;99.90;;;19.19;73.11;97844.00;5091803;28;20031;-75
2022/09/19 03:23:17;;;;;;;20.40;7.85;;;19.30;99.90;;;19.19;72.92;97843.19;5078365;28;20089;-75
2022/09/19 03:25:43;;;;;;;13.13;6.15;;;19.30;99.90;;;19.18;72.91;97847.88;5091479;28;20092;-74
2022/09/19 03:28:09;;;;;;;17.73;7.30;;;19.30;99.90;;;19.15;73.05;97848.59;5106672;27;20394;-75
2022/09/19 03:30:35;;;;;;;14.95;7.22;;;19.30;99.90;;;19.17;73.65;97853.75;5108866;27;20048;-74
2022/09/19 03:33:02;;;;;;;15.65;5.72;;;19.30;99.90;;;19.19;73.32;97852.25;5103797;27;20467;-74
2022/09/19 03:35:28;;;;;;;14.77;6.95;;;19.30;99.90;;;19.18;73.48;97850.63;5101999;27;20046;-74
2022/09/19 03:37:53;;;;;;;10.88;5.85;;;19.30;99.90;;;19.17;73.17;97860.03;5101913;27;20455;-75
2022/09/19 03:40:22;;;;;;;13.82;5.85;;;19.30;99.90;;;19.17;72.78;97862.78;5107371;27;20094;-75
2022/09/19 03:42:52;;;;;;;12.35;6.43;;;19.30;99.90;;;19.20;72.91;97861.28;5105762;27;20043;-74
2022/09/19 03:45:18;;;;;;;18.05;6.43;;;19.30;99.90;;;19.18;72.91;97853.38;5093527;28;20080;-75
2022/09/19 03:47:46;;;;;;;12.95;5.70;;;19.30;99.90;;;19.19;73.24;97849.50;5090852;28;20048;-74
2022/09/19 03:50:12;;;;;;;12.35;5.75;;;19.30;99.90;;;19.17;73.83;97857.28;5086384;28;20486;-76
2022/09/19 03:52:38;;;;;;;10.35;6.22;;;19.30;99.90;;;19.17;72.76;97853.75;5107505;27;20043;-76
2022/09/19 03:55:05;;;;;;;11.50;5.47;;;19.30;99.90;;;19.19;71.58;97851.44;5080279;28;20032;-76
2022/09/19 03:57:31;;;;;;;8.93;4.30;;;19.30;99.90;;;19.17;72.07;97849.03;5089482;27;20119;-76
2022/09/19 03:59:57;;;;;;;10.30;5.03;;;19.30;99.90;;;19.16;71.23;97857.63;5092527;28;20061;-77
2022/09/19 04:02:23;;;;;;;10.13;5.63;;;19.30;99.90;;;19.17;71.57;97851.78;5085561;28;20118;-77
2022/09/19 04:04:49;;;;;;;9.98;5.50;;;19.30;99.90;;;19.18;72.38;97850.63;5106073;28;20124;-77
2022/09/19 04:07:15;;;;;;;10.73;5.32;;;19.30;99.90;;;19.18;72.68;97845.13;5108223;28;20035;-77
2022/09/19 04:09:41;;;;;;;11.95;5.43;;;19.30;99.90;;;19.16;71.87;97839.22;5105824;28;20047;-76
2022/09/19 04:12:08;;;;;;;7.85;4.20;;;19.30;99.90;;;19.12;71.12;97846.56;5092966;28;20139;-77
2022/09/19 04:14:35;;;;;;;8.63;4.90;;;19.30;99.90;;;19.10;71.48;97846.09;5075555;28;20046;-77
2022/09/19 04:17:01;;;;;;;10.52;4.95;;;19.30;99.90;;;19.07;70.98;97850.34;5073417;28;20483;-76
2022/09/19 04:19:29;;;;;;;8.93;4.80;;;19.20;99.90;;;19.12;71.78;97860.31;5106434;28;20043;-76
2022/09/19 04:22:01;;;;;;;9.52;4.40;;;19.30;99.90;;;19.16;71.93;97861.19;5089226;28;20479;-76
2022/09/19 04:24:29;;;;;;;8.70;4.28;;;19.30;99.90;;;19.15;72.29;97865.09;5090290;28;20082;-76
2022/09/19 04:26:59;;;;;;;9.25;4.68;;;19.30;99.90;;;19.08;70.94;97867.63;5105400;28;20035;-76
2022/09/19 04:29:27;;;;;;;7.68;3.78;;;19.30;99.90;;;19.13;71.32;97867.38;5103255;28;20040;-76
2022/09/19 04:31:54;;;;;;;9.02;4.22;;;19.30;99.90;;;19.03;71.27;97871.47;5089899;28;20040;-77
2022/09/19 04:34:20;;;;;;;8.85;4.07;;;19.30;99.90;;;19.08;70.31;97871.22;5101727;28;20490;-77
2022/09/19 04:36:50;;;;;;;10.25;4.80;;;19.20;99.90;;;19.11;71.51;97869.72;5102125;28;20040;-77
2022/09/19 04:39:16;;;;;;;10.45;4.80;;;19.20;99.90;;;19.12;71.63;97876.78;5101795;28;20080;-76
2022/09/19 04:41:42;;;;;;;6.47;3.75;;;19.30;99.90;;;19.16;70.52;97874.94;5069233;28;20043;-76
2022/09/19 04:44:10;;;;;;;7.45;4.07;;;19.30;99.90;;;19.06;70.80;97872.72;5101914;28;20506;-77
2022/09/19 04:46:41;;;;;;;8.73;4.43;;;19.20;99.90;;;19.06;70.72;97872.72;5088344;28;20078;-77
2022/09/19 04:49:07;;;;;;;5.95;3.10;;;19.20;99.90;;;19.07;70.49;97877.84;5102232;28;20046;-77
2022/09/19 04:51:33;;;;;;;8.18;3.53;;;19.20;99.90;;;19.09;70.53;97881.03;5081797;28;20422;-76
2022/09/19 04:54:01;;;;;;;8.15;3.88;;;19.20;99.90;;;19.13;70.77;97888.59;5101950;28;20035;-76
2022/09/19 04:56:27;;;;;;;8.48;3.95;;;19.20;99.90;;;19.13;70.96;97883.88;5085391;28;20035;-76
2022/09/19 04:58:53;;;;;;;6.47;3.90;;;19.20;99.90;;;19.06;70.26;97891.97;5108553;27;20051;-76
2022/09/19 05:01:19;;;;;;;8.45;4.13;;;19.20;99.90;;;19.05;70.05;97898.59;5104028;27;20039;-76
2022/09/19 05:03:45;;;;;;;6.03;3.50;;;19.20;99.90;;;19.04;69.92;97902.50;5089039;27;20070;-76
2022/09/19 05:06:11;;;;;;;5.68;3.17;;;19.20;99.90;;;19.10;70.03;97901.06;5106670;27;20405;-76
2022/09/19 05:08:40;;;;;;;4.57;4.18;;;19.20;99.90;;;19.11;70.26;97905.44;5071846;27;20435;-78
2022/09/19 05:11:07;;;;;;;6.57;3.45;;;19.20;99.90;;;19.14;70.43;97910.22;5103791;27;20047;-78
2022/09/19 05:13:36;;;;;;;10.98;4.63;;;19.20;99.90;;;19.12;70.36;97912.53;5072283;27;20069;-78
2022/09/19 05:16:03;;;;;;;5.10;3.30;;;19.20;99.90;;;19.07;69.64;97919.06;5073253;27;20036;-78
2022/09/19 05:18:30;;;;;;;8.00;3.65;;;19.20;99.90;;;19.09;70.18;97919.53;5074945;27;20039;-78
2022/09/19 05:20:56;;;;;;;8.02;3.45;;;19.20;99.90;;;19.09;69.69;97913.22;5106160;27;20742;-78
2022/09/19 05:23:23;;;;;;;5.85;3.22;;;19.20;99.90;;;19.11;70.00;97921.94;5093050;27;20111;-78
2022/09/19 05:25:53;;;;;;;5.50;3.10;;;19.20;99.90;;;19.12;70.34;97925.47;5088355;28;20618;-78
2022/09/19 05:28:21;;;;;;;5.72;3.38;;;19.20;99.90;;;19.12;70.37;97930.97;5086716;27;20268;-78
2022/09/19 05:30:54;;;;;;;6.97;3.53;;;19.20;99.90;;;19.13;69.76;97933.34;5104627;27;20632;-78
2022/09/19 05:33:26;;;;;;;7.03;3.15;;;19.20;99.90;;;19.13;69.23;97936.09;5091565;27;20093;-79
2022/09/19 05:35:55;;;;;;;5.25;3.53;;;19.20;99.90;;;19.10;69.36;97939.56;5074814;27;20048;-79
2022/09/19 05:38:23;;;;;;;6.65;3.65;;;19.20;99.90;;;19.14;69.18;97945.16;5090956;27;20205;-79
2022/09/19 05:40:53;;;;;;;5.85;3.63;;;19.20;99.90;;;19.16;69.28;97951.91;5065934;28;20044;-79
2022/09/19 05:43:19;;;;;;;5.63;3.30;;;19.20;99.90;;;19.23;69.17;97948.53;5086057;28;20039;-79
2022/09/19 05:45:46;;;;;;;8.77;3.50;;;19.30;99.90;;;19.22;68.98;97952.47;5086277;28;20047;-79
2022/09/19 05:48:13;;;;;;;8.80;3.95;;;19.30;99.90;;;19.16;68.79;97962.91;5075807;28;20555;-79
2022/09/19 05:50:39;;;;;;;6.78;3.15;;;19.30;99.90;;;19.18;68.51;97960.59;5071724;27;20177;-79
2022/09/19 05:55:50;;;;;;;6.90;3.25;;;19.30;99.90;;;19.27;67.94;97952.19;5092243;28;20173;-79
2022/09/19 05:58:17;;;;;;;5.68;3.03;;;19.30;99.90;;;19.25;67.78;97949.00;5093055;28;20043;-79
2022/09/19 06:00:43;;;;;;;2.83;2.40;;;19.30;99.90;;;19.33;67.26;97961.00;5102112;27;20044;-79
2022/09/19 06:03:11;;;;;;;5.18;2.88;;;19.30;99.90;;;19.34;67.50;97965.34;5089607;28;20148;-79
2022/09/19 06:05:43;;;;;;;5.40;3.20;;;19.30;99.90;;;19.33;68.19;97966.50;5088382;28;20040;-79
2022/09/19 06:08:08;;;;;;;;;;;19.30;99.90;;;19.36;67.98;97980.34;5069012;28;20554;-79
2022/09/19 06:10:39;;;;;;;5.75;2.70;;;19.30;99.90;;;19.36;67.33;97976.78;5105966;27;20420;-79
2022/09/19 06:13:09;;;;;;;4.50;2.90;;;19.30;99.90;;;19.32;67.65;97973.16;5089493;27;20402;-79
2022/09/19 06:15:35;;;;;;;7.22;2.97;;;19.30;99.90;;;19.27;67.81;97980.50;5107776;27;20130;-79
2022/09/19 06:18:01;;;;;;;5.25;3.83;;;19.30;99.90;;;19.25;68.11;97982.78;5105230;27;20058;-79
2022/09/19 06:20:27;;;;;;;5.47;3.35;;;19.20;99.90;;;19.27;68.65;97982.44;5076819;27;20043;-79
2022/09/19 06:23:01;;;;;;;6.38;3.00;;;19.30;99.90;;;19.30;68.67;97984.50;5076658;28;20514;-79
2022/09/19 06:25:31;;;;;;;6.70;2.97;;;19.30;99.90;;;19.28;68.53;97984.03;5103758;27;20040;-79
2022/09/19 06:27:59;;;;;;;6.40;3.22;;;19.40;99.90;;;19.32;67.98;97989.66;5072157;27;20047;-79
2022/09/19 06:30:25;;;;;;;4.75;2.33;;;19.30;99.90;;;19.34;67.78;97990.09;5090064;27;20043;-79
2022/09/19 06:32:52;;;;;;;3.80;2.90;;;19.30;99.90;;;19.39;67.24;97995.34;5093503;27;20043;-79
2022/09/19 06:35:22;;;;;;;4.32;2.85;;;19.30;99.90;;;19.42;67.49;97994.63;5092833;28;20054;-79
2022/09/19 06:37:49;;;;;;;4.28;2.90;;;19.40;99.90;;;19.49;67.36;97997.59;5075188;28;20043;-79
2022/09/19 06:40:18;;;;;;;8.80;3.10;;;19.40;99.90;;;19.53;66.94;97987.47;5075338;27;20055;-79
2022/09/19 06:42:44;;;;;;;2.75;2.47;;;19.50;99.90;;;19.51;66.36;97995.25;5071614;28;20453;-79
2022/09/19 06:45:10;;;;;;;4.82;2.72;;;19.50;99.90;;;19.50;66.51;97993.66;5086852;27;20039;-79
2022/09/19 06:47:37;;;;;;;5.07;2.78;;;19.50;99.90;;;19.53;66.28;97995.72;5090871;27;20089;-79
2022/09/19 06:50:04;;;;;;;7.45;2.95;;;19.50;99.90;;;19.55;65.95;98001.66;5086794;27;20047;-79
2022/09/19 06:52:30;;;;;;;4.30;2.95;;;19.50;99.90;;;19.58;66.52;98000.97;5107489;27;20040;-79
2022/09/19 06:54:58;;;;;;;5.43;2.90;;;19.50;99.90;;;19.62;66.32;98003.81;5088603;27;20042;-79
2022/09/19 06:57:24;;;;;;;4.40;3.05;;;19.60;99.90;;;19.62;66.27;98001.06;5059668;27;20120;-79
2022/09/19 06:59:50;;;;;;;4.15;2.67;;;19.60;99.90;;;19.60;65.94;98000.63;5073361;27;20058;-79
2022/09/19 07:02:16;;;;;;;3.53;2.35;;;19.60;99.90;;;19.61;65.90;98008.50;5074186;28;20043;-79
2022/09/19 07:04:42;;;;;;;5.85;2.58;;;19.60;99.90;;;19.65;65.68;98006.66;5075509;28;20513;-79
2022/09/19 07:07:08;;;;;;;2.47;1.95;;;19.60;99.90;;;19.67;65.36;98001.63;5074093;27;20407;-78
2022/09/19 07:09:37;;;;;;;5.55;3.05;;;19.70;99.90;;;19.75;65.69;98016.38;5087014;28;20479;-78
2022/09/19 07:12:04;;;;;;;4.95;2.85;;;19.70;99.90;;;19.77;65.27;98018.75;5088072;27;20484;-79
2022/09/19 07:14:30;;;;;;;4.85;3.00;;;19.70;99.90;;;19.78;65.12;98020.38;5057416;28;20087;-79
2022/09/19 07:16:57;;;;;;;4.45;2.80;;;19.70;99.90;;;19.77;65.06;98030.59;5074054;27;20044;-79
2022/09/19 07:19:24;;;;;;;6.20;2.92;;;19.70;99.90;;;19.83;64.83;98028.38;5090715;28;20043;-79
2022/09/19 07:21:53;;;;;;;4.07;3.05;;;19.70;99.90;;;19.87;64.44;98035.56;5085453;28;20102;-79
2022/09/19 07:24:19;;;;;;;2.67;2.42;;;19.80;99.90;;;19.85;64.38;98035.13;5074629;27;20410;-79
2022/09/19 07:26:45;;;;;;;3.83;2.65;;;19.70;99.90;;;19.82;64.89;98032.25;5088766;27;20477;-79
2022/09/19 07:29:11;;;;;;;6.80;2.92;;;19.80;99.90;;;19.74;65.16;98039.53;5106781;27;20043;-79
2022/09/19 07:31:37;;;;;;;6.05;2.85;;;19.80;99.90;;;19.68;65.38;98046.44;5091900;28;20048;-79
2022/09/19 07:34:04;;;;;;;2.38;2.00;;;19.70;99.90;;;19.64;65.60;98045.50;5082951;28;20058;-79
2022/09/19 07:36:30;;;;;;;6.88;3.13;;;19.80;99.90;;;19.58;65.86;98047.72;5090581;28;20040;-79
2022/09/19 07:38:56;;;;;;;5.40;3.28;;;19.80;99.90;;;19.60;65.57;98061.13;5092821;28;20078;-79
2022/09/19 07:41:22;;;;;;;7.72;3.03;;;19.80;99.90;;;19.61;66.19;98058.00;5070621;28;20051;-79
2022/09/19 07:43:49;;;;;;;4.57;3.00;;;19.70;99.90;;;19.56;66.35;98055.53;5102739;27;20051;-78
2022/09/19 07:46:15;;;;;;;2.75;2.22;;;19.80;99.90;;;19.59;66.27;98065.03;5089197;28;20038;-78
2022/09/19 07:48:42;;;;;;;4.15;2.30;;;19.80;99.90;;;19.59;66.07;98065.84;5091568;28;20456;-78
2022/09/19 07:51:08;;;;;;;5.03;2.65;;;19.70;99.90;;;19.67;65.58;98062.16;5086527;28;20063;-78
2022/09/19 07:53:34;;;;;;;4.72;2.33;;;19.80;99.90;;;19.73;64.89;98057.19;5097772;28;20394;-78
2022/09/19 07:56:01;;;;;;;4.95;2.50;;;19.80;99.90;;;19.76;64.67;98059.22;5088520;28;20040;-78
2022/09/19 07:58:27;;;;;;;3.40;2.72;;;19.80;99.90;;;19.82;64.84;98051.50;5093292;27;20092;-78
2022/09/19 08:00:53;;;;;;;2.90;2.35;;;19.80;99.90;;;19.81;64.92;98049.94;5086142;28;20040;-78
2022/09/19 08:03:22;;;;;;;4.53;2.58;;;19.80;99.90;;;19.77;64.96;98055.34;5089221;28;20123;-78
2022/09/19 08:05:50;;;;;;;4.10;1.98;;;19.80;99.90;;;19.77;64.75;98054.53;5084850;28;20070;-79
2022/09/19 08:08:18;;;;;;;3.58;2.45;;;19.90;99.90;;;19.78;64.76;98065.19;5090876;28;20130;-79
2022/09/19 08:10:45;;;;;;;3.47;2.83;;;19.90;99.90;;;19.85;64.59;98059.09;5058321;28;20051;-79
2022/09/19 08:13:13;;;;;;;4.75;2.75;;;19.90;99.90;;;19.95;64.09;98066.81;5087609;28;20040;-79
2022/09/19 08:15:39;;;;;;;3.88;2.60;;;19.90;99.90;;;19.98;63.91;98065.31;5107904;28;20051;-79
2022/09/19 08:18:15;;;;;;;2.85;2.20;;;20.00;99.90;;;20.09;63.50;98066.38;5079773;28;20046;-79
2022/09/19 08:20:42;;;;;;;6.65;3.05;;;20.00;99.90;;;20.03;63.35;98068.59;5097521;28;20047;-79
2022/09/19 08:23:13;;;;;;;4.00;2.58;;;20.00;99.90;;;19.97;63.64;98069.22;5086846;28;20093;-79
2022/09/19 08:25:43;;;;;;;4.03;2.55;;;20.00;99.90;;;19.91;63.83;98058.47;5092705;28;20043;-79
2022/09/19 08:28:09;;;;;;;4.53;2.63;;;20.00;99.90;;;19.91;63.69;98063.97;5082649;28;20538;-79
2022/09/19 08:30:35;;;;;;;3.65;2.40;;;20.00;99.90;;;19.95;64.00;98064.88;5067824;28;20542;-79
2022/09/19 08:33:02;;;;;;;3.03;2.55;;;20.00;99.90;;;19.98;63.78;98057.84;5076922;28;20044;-79
2022/09/19 08:35:30;;;;;;;4.40;3.40;;;20.00;99.90;;;19.99;63.64;98064.16;5080024;28;20135;-79
2022/09/19 08:37:59;;;;;;;3.15;1.83;;;20.00;99.90;;;19.98;63.77;98066.13;5088754;28;20498;-79
2022/09/19 08:40:58;;;;;;;3.13;2.15;;;20.10;99.90;;;20.03;63.21;98067.81;5089502;28;20362;-79
2022/09/19 08:43:41;;;;;;;6.63;3.28;;;20.00;99.90;;;20.11;62.93;98062.13;5097061;27;20572;-79
2022/09/19 08:46:18;;;;;;;3.30;2.58;;;20.10;99.90;;;20.11;62.90;98053.84;5104014;27;20413;-79
2022/09/19 08:48:49;;;;;;;4.05;2.70;;;20.10;99.90;;;20.17;62.47;98052.47;5106516;27;20068;-79
2022/09/19 08:51:29;;;;;;;3.22;2.17;;;20.10;99.90;;;20.13;62.62;98062.56;5110032;27;20466;-79
2022/09/19 08:54:18;;;;;;;3.22;2.35;;;20.10;99.90;;;20.12;62.51;98058.22;5076377;27;20046;-79
2022/09/19 08:56:44;;;;;;;3.83;2.15;;;20.20;99.90;;;20.14;62.48;98058.66;5100686;27;20074;-79
2022/09/19 08:59:20;;;;;;;3.30;2.35;;;20.10;99.90;;;20.17;62.12;98057.97;5079725;28;20147;-79
2022/09/19 09:01:46;;;;;;;4.50;2.70;;;20.10;99.90;;;20.22;62.01;98050.56;5077423;27;20574;-79
2022/09/19 09:04:30;;;;;;;2.25;1.80;;;20.20;99.90;;;20.29;61.66;98050.75;5088203;28;20043;-79
2022/09/19 09:07:36;;;;;;;3.13;2.50;;;20.20;99.90;;;20.34;61.71;98050.47;5093832;27;20043;-79
2022/09/19 09:10:24;;;;;;;2.75;2.40;;;20.30;99.90;;;20.30;61.63;98053.16;5106495;27;20553;-80
2022/09/19 09:13:05;;;;;;;3.30;2.15;;;20.30;99.90;;;20.31;61.44;98059.47;5107373;27;20050;-79
2022/09/19 09:15:45;;;;;;;3.42;2.10;;;20.20;99.90;;;20.29;61.59;98065.31;5105574;27;20461;-79
2022/09/19 09:18:52;;;;;;;4.13;1.98;;;20.20;99.90;;;20.25;61.78;98064.44;5110062;27;20036;-79
2022/09/19 09:22:18;;;;;;;2.58;2.08;;;20.30;99.90;;;20.24;61.73;98070.28;5106564;27;20032;-79
2022/09/19 09:24:53;;;;;;;2.47;2.08;;;20.30;99.90;;;20.24;61.86;98078.56;5106053;27;20101;-79
2022/09/19 09:27:23;;;;;;;2.60;2.03;;;20.30;99.90;;;20.23;61.67;98093.50;5078212;27;20074;-79
2022/09/19 09:29:54;;;;;;;4.20;2.40;;;20.30;99.90;;;20.19;61.77;98095.34;5089298;27;20050;-79
2022/09/19 09:32:35;;;;;;;4.45;2.03;;;20.30;99.90;;;20.13;62.18;98100.31;5075084;27;20402;-79
2022/09/19 09:35:12;;;;;;;2.75;2.50;;;20.30;99.90;;;20.12;62.39;98090.44;5082854;27;20035;-79
2022/09/19 09:37:53;;;;;;;4.40;2.80;;;20.30;99.90;;;20.15;62.06;98087.81;5104171;27;20044;-79
2022/09/19 09:43:24;;;;;;;4.28;2.22;;;20.30;99.90;;;20.33;61.26;98079.97;5096923;28;20047;-79
2022/09/19 09:45:51;;;;;;;3.25;2.08;;;20.40;99.90;;;20.30;61.21;98077.13;5090493;28;20458;-79
2022/09/19 09:48:33;;;;;;;5.18;2.17;;;20.30;99.90;;;20.34;61.14;98075.28;5092836;28;20044;-79
2022/09/19 09:51:09;;;;;;;3.05;2.35;;;20.40;99.90;;;20.32;61.20;98080.34;5071148;27;20394;-79
2022/09/19 09:53:56;;;;;;;3.40;2.00;;;20.40;99.90;;;20.33;60.78;98079.97;5089762;27;20040;-79
2022/09/19 09:56:36;;;;;;;3.58;1.98;;;20.40;99.90;;;20.44;60.47;98073.94;5104767;27;20122;-79
2022/09/19 10:05:36;;;;;;;2.30;1.70;;;20.40;99.90;;;20.51;60.01;98085.94;5105600;27;20043;-79
2022/09/19 10:08:31;;;;;;;2.13;1.77;;;20.50;99.90;;;20.55;59.89;98088.78;5089605;27;20039;-79
2022/09/19 10:11:11;;;;;;;3.95;2.38;;;20.50;99.90;;;20.63;59.71;98089.75;5098355;27;20086;-79
2022/09/19 10:13:52;;;;;;;1.75;1.60;;;20.50;99.90;;;20.68;59.46;98083.97;5088682;27;20050;-79
2022/09/19 10:16:18;;;;;;;2.10;1.90;;;20.50;99.90;;;20.70;59.21;98093.47;5075708;28;20032;-79
2022/09/19 10:18:53;;;;;;;2.72;2.15;;;20.50;99.90;;;20.60;59.94;98094.03;5068503;28;20048;-79
2022/09/19 10:21:19;;;;;;;2.95;1.88;;;20.50;99.90;;;20.55;59.70;98105.31;5075170;27;20042;-80
2022/09/19 10:23:46;;;;;;;1.88;1.65;;;20.50;99.90;;;20.54;59.77;98110.03;5074376;27;20126;-80
2022/09/19 10:26:15;;;;;;;2.08;1.85;;;20.50;99.90;;;20.54;59.99;98117.47;5073272;27;20045;-80
2022/09/19 10:28:53;;;;;;;2.88;2.08;;;20.50;99.90;;;20.55;59.92;98113.59;5087370;27;20128;-80
2022/09/19 10:31:23;;;;;;;4.57;2.22;;;20.50;99.90;;;20.56;59.74;98118.75;5073994;27;20537;-80
2022/09/19 10:33:50;;;;;;;2.83;2.10;;;20.50;99.90;;;20.55;59.71;98121.84;5088145;27;20040;-80
2022/09/19 10:36:22;;;;;;;3.28;2.05;;;20.50;99.90;;;20.50;59.91;98131.16;5076712;27;20471;-80
2022/09/19 10:38:59;;;;;;;2.67;2.00;;;20.50;99.90;;;20.51;59.70;98130.00;5071300;27;20501;-80
2022/09/19 10:41:27;;;;;;;2.35;1.60;;;20.50;99.90;;;20.50;59.78;98131.16;5071526;28;20062;-80
2022/09/19 10:44:09;;;;;;;2.95;1.98;;;20.50;99.90;;;20.51;60.08;98130.00;5068358;28;20048;-80
2022/09/19 10:46:46;;;;;;;1.40;1.30;;;20.60;99.90;;;20.52;59.94;98130.81;5093331;28;20120;-80
2022/09/19 10:49:22;;;;;;;3.55;1.83;;;20.60;99.90;;;20.50;59.74;98133.09;5089108;27;20548;-80
2022/09/19 10:51:51;;;;;;;5.47;2.53;;;20.60;99.90;;;20.49;59.88;98126.81;5075153;27;20569;-80